sensor_id;sensor_type;location;lat;lon;timestamp;temperature;humidity
420;DHT22;42600;54.408;13.016;2022-10-16T00:01:42;14.40;92.70
420;DHT22;42600;54.408;13.016;2022-10-16T00:04:09;14.40;92.70
420;DHT22;42600;54.408;13.016;2022-10-16T00:06:36;14.40;92.70
420;DHT22;42600;54.408;13.016;2022-10-16T00:09:04;14.40;92.70
420;DHT22;42600;54.408;13.016;2022-10-16T00:11:32;14.40;92.70
420;DHT22;42600;54.408;13.016;2022-10-16T00:14:03;14.40;92.70
420;DHT22;42600;54.408;13.016;2022-10-16T00:16:30;14.40;92.70
420;DHT22;42600;54.408;13.016;2022-10-16T00:18:57;14.40;92.70
420;DHT22;42600;54.408;13.016;2022-10-16T00:21:26;14.40;92.70
420;DHT22;42600;54.408;13.016;2022-10-16T00:23:55;14.40;92.70
420;DHT22;42600;54.408;13.016;2022-10-16T00:26:24;14.40;92.70
420;DHT22;42600;54.408;13.016;2022-10-16T00:28:51;14.40;92.70
420;DHT22;42600;54.408;13.016;2022-10-16T00:31:19;14.40;92.70
420;DHT22;42600;54.408;13.016;2022-10-16T00:33:46;14.40;92.70
420;DHT22;42600;54.408;13.016;2022-10-16T00:36:15;14.40;92.70
420;DHT22;42600;54.408;13.016;2022-10-16T00:38:43;14.40;92.70
420;DHT22;42600;54.408;13.016;2022-10-16T00:41:12;14.40;92.70
420;DHT22;42600;54.408;13.016;2022-10-16T00:43:42;14.40;92.70
420;DHT22;42600;54.408;13.016;2022-10-16T00:46:16;14.30;92.70
420;DHT22;42600;54.408;13.016;2022-10-16T00:48:46;14.40;92.70
420;DHT22;42600;54.408;13.016;2022-10-16T00:51:15;14.40;92.70
420;DHT22;42600;54.408;13.016;2022-10-16T00:53:43;14.40;92.70
420;DHT22;42600;54.408;13.016;2022-10-16T00:56:11;14.40;92.70
420;DHT22;42600;54.408;13.016;2022-10-16T00:58:37;14.40;92.70
420;DHT22;42600;54.408;13.016;2022-10-16T01:01:05;14.40;92.70
420;DHT22;42600;54.408;13.016;2022-10-16T01:03:33;14.40;92.70
420;DHT22;42600;54.408;13.016;2022-10-16T01:06:11;14.30;92.70
420;DHT22;42600;54.408;13.016;2022-10-16T01:08:49;14.40;92.70
420;DHT22;42600;54.408;13.016;2022-10-16T01:11:22;14.30;92.70
420;DHT22;42600;54.408;13.016;2022-10-16T01:13:53;14.30;92.70
420;DHT22;42600;54.408;13.016;2022-10-16T01:16:29;14.30;92.70
420;DHT22;42600;54.408;13.016;2022-10-16T01:19:03;14.30;92.70
420;DHT22;42600;54.408;13.016;2022-10-16T01:21:33;14.30;92.70
420;DHT22;42600;54.408;13.016;2022-10-16T01:24:06;14.20;92.70
420;DHT22;42600;54.408;13.016;2022-10-16T01:26:46;14.30;92.70
420;DHT22;42600;54.408;13.016;2022-10-16T01:29:20;14.30;92.70
420;DHT22;42600;54.408;13.016;2022-10-16T01:31:50;14.30;92.70
420;DHT22;42600;54.408;13.016;2022-10-16T01:34:27;14.30;92.70
420;DHT22;42600;54.408;13.016;2022-10-16T01:36:59;14.30;92.70
420;DHT22;42600;54.408;13.016;2022-10-16T01:39:30;14.30;92.70
420;DHT22;42600;54.408;13.016;2022-10-16T01:42:03;14.20;92.70
420;DHT22;42600;54.408;13.016;2022-10-16T01:44:33;14.20;92.70
420;DHT22;42600;54.408;13.016;2022-10-16T01:47:01;14.20;92.70
420;DHT22;42600;54.408;13.016;2022-10-16T01:49:31;14.20;92.70
420;DHT22;42600;54.408;13.016;2022-10-16T01:52:02;14.30;92.70
420;DHT22;42600;54.408;13.016;2022-10-16T01:54:31;14.20;92.70
420;DHT22;42600;54.408;13.016;2022-10-16T01:57:00;14.20;92.70
420;DHT22;42600;54.408;13.016;2022-10-16T01:59:32;14.20;92.70
420;DHT22;42600;54.408;13.016;2022-10-16T02:02:01;14.20;92.70
420;DHT22;42600;54.408;13.016;2022-10-16T02:04:34;14.20;92.70
420;DHT22;42600;54.408;13.016;2022-10-16T02:07:02;14.20;92.70
420;DHT22;42600;54.408;13.016;2022-10-16T02:09:30;14.20;92.70
420;DHT22;42600;54.408;13.016;2022-10-16T02:12:03;14.20;92.70
420;DHT22;42600;54.408;13.016;2022-10-16T02:14:33;14.20;92.70
420;DHT22;42600;54.408;13.016;2022-10-16T02:17:00;14.20;92.70
420;DHT22;42600;54.408;13.016;2022-10-16T02:19:26;14.20;92.70
420;DHT22;42600;54.408;13.016;2022-10-16T02:21:55;14.20;92.70
420;DHT22;42600;54.408;13.016;2022-10-16T02:24:31;14.20;92.70
420;DHT22;42600;54.408;13.016;2022-10-16T02:27:05;14.10;92.70
420;DHT22;42600;54.408;13.016;2022-10-16T02:29:39;14.10;92.70
420;DHT22;42600;54.408;13.016;2022-10-16T02:32:10;14.10;92.70
420;DHT22;42600;54.408;13.016;2022-10-16T02:34:40;14.10;92.70
420;DHT22;42600;54.408;13.016;2022-10-16T02:37:07;14.10;92.70
420;DHT22;42600;54.408;13.016;2022-10-16T02:39:36;14.10;92.70
420;DHT22;42600;54.408;13.016;2022-10-16T02:42:03;14.10;92.70
420;DHT22;42600;54.408;13.016;2022-10-16T02:44:29;14.10;92.70
420;DHT22;42600;54.408;13.016;2022-10-16T02:46:57;14.10;92.70
420;DHT22;42600;54.408;13.016;2022-10-16T02:49:24;14.00;92.70
420;DHT22;42600;54.408;13.016;2022-10-16T02:51:50;14.00;92.70
420;DHT22;42600;54.408;13.016;2022-10-16T02:54:17;14.10;92.70
420;DHT22;42600;54.408;13.016;2022-10-16T02:56:43;14.00;92.70
420;DHT22;42600;54.408;13.016;2022-10-16T02:59:10;14.10;92.70
420;DHT22;42600;54.408;13.016;2022-10-16T03:01:37;14.10;92.70
420;DHT22;42600;54.408;13.016;2022-10-16T03:04:04;14.00;92.70
420;DHT22;42600;54.408;13.016;2022-10-16T03:06:31;14.00;92.70
420;DHT22;42600;54.408;13.016;2022-10-16T03:08:58;14.00;92.70
420;DHT22;42600;54.408;13.016;2022-10-16T03:11:24;14.00;92.70
420;DHT22;42600;54.408;13.016;2022-10-16T03:13:51;14.00;92.70
420;DHT22;42600;54.408;13.016;2022-10-16T03:16:18;14.00;92.70
420;DHT22;42600;54.408;13.016;2022-10-16T03:18:48;13.90;92.70
420;DHT22;42600;54.408;13.016;2022-10-16T03:21:16;13.90;92.70
420;DHT22;42600;54.408;13.016;2022-10-16T03:23:42;13.90;92.70
420;DHT22;42600;54.408;13.016;2022-10-16T03:26:09;13.90;92.70
420;DHT22;42600;54.408;13.016;2022-10-16T03:28:35;13.90;92.70
420;DHT22;42600;54.408;13.016;2022-10-16T03:31:02;13.90;92.70
420;DHT22;42600;54.408;13.016;2022-10-16T03:33:28;13.90;92.70
420;DHT22;42600;54.408;13.016;2022-10-16T03:35:55;13.90;92.70
420;DHT22;42600;54.408;13.016;2022-10-16T03:38:23;13.90;92.70
420;DHT22;42600;54.408;13.016;2022-10-16T03:40:49;13.80;92.70
420;DHT22;42600;54.408;13.016;2022-10-16T03:43:16;13.80;92.70
420;DHT22;42600;54.408;13.016;2022-10-16T03:45:42;13.80;92.70
420;DHT22;42600;54.408;13.016;2022-10-16T03:48:09;13.80;92.70
420;DHT22;42600;54.408;13.016;2022-10-16T03:50:36;13.80;92.70
420;DHT22;42600;54.408;13.016;2022-10-16T03:53:02;13.80;92.70
420;DHT22;42600;54.408;13.016;2022-10-16T03:55:30;13.90;92.70
420;DHT22;42600;54.408;13.016;2022-10-16T03:57:57;13.80;92.70
420;DHT22;42600;54.408;13.016;2022-10-16T04:00:23;13.80;92.70
420;DHT22;42600;54.408;13.016;2022-10-16T04:02:50;13.80;92.70
420;DHT22;42600;54.408;13.016;2022-10-16T04:05:17;13.80;92.70
420;DHT22;42600;54.408;13.016;2022-10-16T04:07:43;13.80;92.70
420;DHT22;42600;54.408;13.016;2022-10-16T04:10:10;13.80;92.70
420;DHT22;42600;54.408;13.016;2022-10-16T04:12:38;13.80;92.70
420;DHT22;42600;54.408;13.016;2022-10-16T04:15:05;13.80;92.70
420;DHT22;42600;54.408;13.016;2022-10-16T04:17:31;13.80;92.70
420;DHT22;42600;54.408;13.016;2022-10-16T04:19:58;13.80;92.70
420;DHT22;42600;54.408;13.016;2022-10-16T04:22:24;13.80;92.70
420;DHT22;42600;54.408;13.016;2022-10-16T04:24:51;13.70;92.70
420;DHT22;42600;54.408;13.016;2022-10-16T04:27:17;13.70;92.70
420;DHT22;42600;54.408;13.016;2022-10-16T04:29:45;13.70;92.70
420;DHT22;42600;54.408;13.016;2022-10-16T04:32:12;13.70;92.70
420;DHT22;42600;54.408;13.016;2022-10-16T04:34:39;13.70;92.70
420;DHT22;42600;54.408;13.016;2022-10-16T04:37:06;13.70;92.70
420;DHT22;42600;54.408;13.016;2022-10-16T04:39:32;13.70;92.70
420;DHT22;42600;54.408;13.016;2022-10-16T04:41:59;13.60;92.70
420;DHT22;42600;54.408;13.016;2022-10-16T04:44:25;13.70;92.70
420;DHT22;42600;54.408;13.016;2022-10-16T04:46:53;13.60;92.70
420;DHT22;42600;54.408;13.016;2022-10-16T04:49:20;13.60;92.70
420;DHT22;42600;54.408;13.016;2022-10-16T04:51:46;13.50;92.70
420;DHT22;42600;54.408;13.016;2022-10-16T04:54:13;13.50;92.70
420;DHT22;42600;54.408;13.016;2022-10-16T04:56:39;13.50;92.70
420;DHT22;42600;54.408;13.016;2022-10-16T04:59:12;13.50;92.70
420;DHT22;42600;54.408;13.016;2022-10-16T05:01:38;13.50;92.70
420;DHT22;42600;54.408;13.016;2022-10-16T05:04:06;13.50;92.70
420;DHT22;42600;54.408;13.016;2022-10-16T05:06:33;13.50;92.70
420;DHT22;42600;54.408;13.016;2022-10-16T05:08:59;13.40;92.70
420;DHT22;42600;54.408;13.016;2022-10-16T05:11:26;13.50;92.70
420;DHT22;42600;54.408;13.016;2022-10-16T05:13:53;13.50;92.70
420;DHT22;42600;54.408;13.016;2022-10-16T05:16:19;13.40;92.70
420;DHT22;42600;54.408;13.016;2022-10-16T05:18:46;13.40;92.70
420;DHT22;42600;54.408;13.016;2022-10-16T05:21:14;13.40;92.70
420;DHT22;42600;54.408;13.016;2022-10-16T05:23:40;13.40;92.70
420;DHT22;42600;54.408;13.016;2022-10-16T05:26:08;13.40;92.70
420;DHT22;42600;54.408;13.016;2022-10-16T05:28:35;13.40;92.70
420;DHT22;42600;54.408;13.016;2022-10-16T05:31:04;13.40;92.70
420;DHT22;42600;54.408;13.016;2022-10-16T05:33:30;13.40;92.70
420;DHT22;42600;54.408;13.016;2022-10-16T05:36:00;13.40;92.70
420;DHT22;42600;54.408;13.016;2022-10-16T05:38:28;13.40;92.70
420;DHT22;42600;54.408;13.016;2022-10-16T05:40:55;13.40;92.70
420;DHT22;42600;54.408;13.016;2022-10-16T05:43:22;13.40;92.70
420;DHT22;42600;54.408;13.016;2022-10-16T05:45:56;13.30;92.70
420;DHT22;42600;54.408;13.016;2022-10-16T05:48:22;13.40;92.70
420;DHT22;42600;54.408;13.016;2022-10-16T05:50:56;13.30;92.70
420;DHT22;42600;54.408;13.016;2022-10-16T05:53:23;13.30;92.70
420;DHT22;42600;54.408;13.016;2022-10-16T05:55:53;13.30;92.70
420;DHT22;42600;54.408;13.016;2022-10-16T05:58:20;13.30;92.70
420;DHT22;42600;54.408;13.016;2022-10-16T06:00:53;13.30;92.70
420;DHT22;42600;54.408;13.016;2022-10-16T06:03:19;13.30;92.70
420;DHT22;42600;54.408;13.016;2022-10-16T06:05:46;13.30;92.70
420;DHT22;42600;54.408;13.016;2022-10-16T06:08:12;13.30;92.70
420;DHT22;42600;54.408;13.016;2022-10-16T06:10:39;13.30;92.70
420;DHT22;42600;54.408;13.016;2022-10-16T06:13:07;13.30;92.70
420;DHT22;42600;54.408;13.016;2022-10-16T06:15:33;13.20;92.70
420;DHT22;42600;54.408;13.016;2022-10-16T06:18:00;13.30;92.70
420;DHT22;42600;54.408;13.016;2022-10-16T06:20:26;13.30;92.70
420;DHT22;42600;54.408;13.016;2022-10-16T06:22:53;13.30;92.70
420;DHT22;42600;54.408;13.016;2022-10-16T06:25:20;13.30;92.70
420;DHT22;42600;54.408;13.016;2022-10-16T06:27:46;13.20;92.70
420;DHT22;42600;54.408;13.016;2022-10-16T06:30:14;13.30;92.70
420;DHT22;42600;54.408;13.016;2022-10-16T06:32:41;13.30;92.70
420;DHT22;42600;54.408;13.016;2022-10-16T06:35:08;13.30;92.70
420;DHT22;42600;54.408;13.016;2022-10-16T06:37:34;13.30;92.70
420;DHT22;42600;54.408;13.016;2022-10-16T06:40:01;13.30;92.70
420;DHT22;42600;54.408;13.016;2022-10-16T06:42:29;13.30;92.70
420;DHT22;42600;54.408;13.016;2022-10-16T06:44:56;13.40;92.70
420;DHT22;42600;54.408;13.016;2022-10-16T06:47:24;13.40;92.70
420;DHT22;42600;54.408;13.016;2022-10-16T06:49:50;13.40;92.70
420;DHT22;42600;54.408;13.016;2022-10-16T06:52:17;13.40;92.70
420;DHT22;42600;54.408;13.016;2022-10-16T06:54:44;13.40;92.70
420;DHT22;42600;54.408;13.016;2022-10-16T06:57:10;13.40;92.70
420;DHT22;42600;54.408;13.016;2022-10-16T06:59:37;13.40;92.70
420;DHT22;42600;54.408;13.016;2022-10-16T07:02:03;13.40;92.70
420;DHT22;42600;54.408;13.016;2022-10-16T07:04:32;13.40;92.70
420;DHT22;42600;54.408;13.016;2022-10-16T07:07:00;13.40;92.70
420;DHT22;42600;54.408;13.016;2022-10-16T07:09:26;13.40;92.70
420;DHT22;42600;54.408;13.016;2022-10-16T07:11:53;13.40;92.70
420;DHT22;42600;54.408;13.016;2022-10-16T07:14:20;13.40;92.70
420;DHT22;42600;54.408;13.016;2022-10-16T07:16:48;13.40;92.70
420;DHT22;42600;54.408;13.016;2022-10-16T07:19:15;13.40;92.70
420;DHT22;42600;54.408;13.016;2022-10-16T07:21:44;13.40;92.70
420;DHT22;42600;54.408;13.016;2022-10-16T07:24:12;13.40;92.70
420;DHT22;42600;54.408;13.016;2022-10-16T07:26:40;13.40;92.70
420;DHT22;42600;54.408;13.016;2022-10-16T07:29:12;13.40;92.70
420;DHT22;42600;54.408;13.016;2022-10-16T07:31:38;13.40;92.70
420;DHT22;42600;54.408;13.016;2022-10-16T07:34:05;13.50;92.70
420;DHT22;42600;54.408;13.016;2022-10-16T07:36:32;13.60;92.70
420;DHT22;42600;54.408;13.016;2022-10-16T07:39:00;13.60;92.70
420;DHT22;42600;54.408;13.016;2022-10-16T07:41:26;13.70;92.70
420;DHT22;42600;54.408;13.016;2022-10-16T07:43:54;13.70;92.70
420;DHT22;42600;54.408;13.016;2022-10-16T07:46:22;13.80;92.70
420;DHT22;42600;54.408;13.016;2022-10-16T07:48:50;13.80;92.70
420;DHT22;42600;54.408;13.016;2022-10-16T07:51:18;13.80;92.70
420;DHT22;42600;54.408;13.016;2022-10-16T07:53:45;13.80;92.70
420;DHT22;42600;54.408;13.016;2022-10-16T07:56:14;13.90;92.70
420;DHT22;42600;54.408;13.016;2022-10-16T07:58:41;13.90;92.70
420;DHT22;42600;54.408;13.016;2022-10-16T08:01:10;13.90;92.70
420;DHT22;42600;54.408;13.016;2022-10-16T08:03:37;14.00;92.70
420;DHT22;42600;54.408;13.016;2022-10-16T08:06:04;14.00;92.70
420;DHT22;42600;54.408;13.016;2022-10-16T08:08:31;14.00;92.70
420;DHT22;42600;54.408;13.016;2022-10-16T08:10:57;14.00;92.70
420;DHT22;42600;54.408;13.016;2022-10-16T08:13:25;14.10;92.70
420;DHT22;42600;54.408;13.016;2022-10-16T08:15:54;14.10;92.70
420;DHT22;42600;54.408;13.016;2022-10-16T08:18:20;14.10;92.70
420;DHT22;42600;54.408;13.016;2022-10-16T08:20:47;14.20;92.70
420;DHT22;42600;54.408;13.016;2022-10-16T08:23:13;14.20;92.70
420;DHT22;42600;54.408;13.016;2022-10-16T08:25:41;14.20;92.70
420;DHT22;42600;54.408;13.016;2022-10-16T08:28:10;14.30;92.70
420;DHT22;42600;54.408;13.016;2022-10-16T08:30:38;14.30;92.70
420;DHT22;42600;54.408;13.016;2022-10-16T08:33:05;14.30;92.70
420;DHT22;42600;54.408;13.016;2022-10-16T08:35:32;14.30;92.70
420;DHT22;42600;54.408;13.016;2022-10-16T08:37:58;14.40;92.70
420;DHT22;42600;54.408;13.016;2022-10-16T08:40:27;14.50;92.70
420;DHT22;42600;54.408;13.016;2022-10-16T08:46:19;14.60;92.70
420;DHT22;42600;54.408;13.016;2022-10-16T08:48:51;14.70;92.70
420;DHT22;42600;54.408;13.016;2022-10-16T08:51:20;14.70;92.70
420;DHT22;42600;54.408;13.016;2022-10-16T08:53:52;14.80;92.70
420;DHT22;42600;54.408;13.016;2022-10-16T08:56:19;14.80;92.70
420;DHT22;42600;54.408;13.016;2022-10-16T08:58:46;14.80;92.70
420;DHT22;42600;54.408;13.016;2022-10-16T09:01:17;14.80;92.70
420;DHT22;42600;54.408;13.016;2022-10-16T09:03:57;14.90;92.70
420;DHT22;42600;54.408;13.016;2022-10-16T09:06:39;14.90;92.70
420;DHT22;42600;54.408;13.016;2022-10-16T09:09:19;15.00;92.70
420;DHT22;42600;54.408;13.016;2022-10-16T09:11:52;15.00;92.70
420;DHT22;42600;54.408;13.016;2022-10-16T09:14:37;15.10;92.70
420;DHT22;42600;54.408;13.016;2022-10-16T09:17:18;15.10;92.70
420;DHT22;42600;54.408;13.016;2022-10-16T09:19:53;15.20;92.70
420;DHT22;42600;54.408;13.016;2022-10-16T09:22:21;15.30;92.70
420;DHT22;42600;54.408;13.016;2022-10-16T09:24:50;15.30;92.50
420;DHT22;42600;54.408;13.016;2022-10-16T09:27:17;15.40;92.50
420;DHT22;42600;54.408;13.016;2022-10-16T09:29:43;15.50;92.10
420;DHT22;42600;54.408;13.016;2022-10-16T09:32:14;15.50;92.10
420;DHT22;42600;54.408;13.016;2022-10-16T09:34:43;15.50;92.20
420;DHT22;42600;54.408;13.016;2022-10-16T09:37:13;15.60;91.50
420;DHT22;42600;54.408;13.016;2022-10-16T09:39:48;15.60;91.60
420;DHT22;42600;54.408;13.016;2022-10-16T09:42:16;15.70;91.60
420;DHT22;42600;54.408;13.016;2022-10-16T09:44:47;15.70;91.20
420;DHT22;42600;54.408;13.016;2022-10-16T09:47:18;15.70;91.10
420;DHT22;42600;54.408;13.016;2022-10-16T09:49:53;15.70;91.20
420;DHT22;42600;54.408;13.016;2022-10-16T09:52:21;15.70;90.80
420;DHT22;42600;54.408;13.016;2022-10-16T09:54:52;15.70;91.10
420;DHT22;42600;54.408;13.016;2022-10-16T09:57:19;15.80;91.00
420;DHT22;42600;54.408;13.016;2022-10-16T09:59:47;15.80;91.00
420;DHT22;42600;54.408;13.016;2022-10-16T10:02:17;15.80;91.00
420;DHT22;42600;54.408;13.016;2022-10-16T10:04:49;15.90;90.70
420;DHT22;42600;54.408;13.016;2022-10-16T10:07:18;15.90;90.70
420;DHT22;42600;54.408;13.016;2022-10-16T10:09:45;16.00;90.60
420;DHT22;42600;54.408;13.016;2022-10-16T10:12:18;16.00;90.20
420;DHT22;42600;54.408;13.016;2022-10-16T10:14:47;16.00;90.10
420;DHT22;42600;54.408;13.016;2022-10-16T10:17:18;16.10;90.40
420;DHT22;42600;54.408;13.016;2022-10-16T10:19:50;16.20;90.10
420;DHT22;42600;54.408;13.016;2022-10-16T10:22:31;16.20;89.90
420;DHT22;42600;54.408;13.016;2022-10-16T10:28:14;16.40;89.60
420;DHT22;42600;54.408;13.016;2022-10-16T10:30:50;16.50;89.10
420;DHT22;42600;54.408;13.016;2022-10-16T10:33:25;16.60;89.00
420;DHT22;42600;54.408;13.016;2022-10-16T10:36:02;16.70;88.60
420;DHT22;42600;54.408;13.016;2022-10-16T10:38:38;16.70;88.40
420;DHT22;42600;54.408;13.016;2022-10-16T10:41:25;16.80;87.60
420;DHT22;42600;54.408;13.016;2022-10-16T10:44:01;16.90;87.50
420;DHT22;42600;54.408;13.016;2022-10-16T10:46:34;17.00;87.10
420;DHT22;42600;54.408;13.016;2022-10-16T10:49:12;17.10;87.00
420;DHT22;42600;54.408;13.016;2022-10-16T10:51:46;17.10;86.70
420;DHT22;42600;54.408;13.016;2022-10-16T10:54:23;17.20;85.90
420;DHT22;42600;54.408;13.016;2022-10-16T10:56:57;17.30;85.60
420;DHT22;42600;54.408;13.016;2022-10-16T10:59:42;17.30;85.30
420;DHT22;42600;54.408;13.016;2022-10-16T11:02:18;17.40;85.40
420;DHT22;42600;54.408;13.016;2022-10-16T11:05:14;17.40;84.80
420;DHT22;42600;54.408;13.016;2022-10-16T11:07:48;17.60;85.10
420;DHT22;42600;54.408;13.016;2022-10-16T11:10:20;17.60;84.20
420;DHT22;42600;54.408;13.016;2022-10-16T11:12:51;17.70;84.10
420;DHT22;42600;54.408;13.016;2022-10-16T11:15:22;17.80;83.50
420;DHT22;42600;54.408;13.016;2022-10-16T11:17:53;17.80;83.70
420;DHT22;42600;54.408;13.016;2022-10-16T11:20:24;17.80;84.20
420;DHT22;42600;54.408;13.016;2022-10-16T11:22:56;17.90;84.40
420;DHT22;42600;54.408;13.016;2022-10-16T11:25:27;18.00;83.70
420;DHT22;42600;54.408;13.016;2022-10-16T11:27:56;18.00;83.70
420;DHT22;42600;54.408;13.016;2022-10-16T11:30:26;18.10;83.20
420;DHT22;42600;54.408;13.016;2022-10-16T11:33:04;18.10;83.60
420;DHT22;42600;54.408;13.016;2022-10-16T11:35:39;18.10;83.20
420;DHT22;42600;54.408;13.016;2022-10-16T11:38:14;18.10;82.90
420;DHT22;42600;54.408;13.016;2022-10-16T11:40:43;18.20;82.90
420;DHT22;42600;54.408;13.016;2022-10-16T11:43:15;18.20;82.80
420;DHT22;42600;54.408;13.016;2022-10-16T11:45:45;18.20;83.30
420;DHT22;42600;54.408;13.016;2022-10-16T11:48:20;18.30;83.10
420;DHT22;42600;54.408;13.016;2022-10-16T11:50:53;18.30;82.70
420;DHT22;42600;54.408;13.016;2022-10-16T11:53:27;18.30;82.90
420;DHT22;42600;54.408;13.016;2022-10-16T11:55:58;18.40;82.90
420;DHT22;42600;54.408;13.016;2022-10-16T11:58:27;18.40;83.10
420;DHT22;42600;54.408;13.016;2022-10-16T12:01:01;18.50;82.80
420;DHT22;42600;54.408;13.016;2022-10-16T12:03:34;18.50;82.90
420;DHT22;42600;54.408;13.016;2022-10-16T12:06:13;18.50;82.00
420;DHT22;42600;54.408;13.016;2022-10-16T12:08:43;18.60;81.70
420;DHT22;42600;54.408;13.016;2022-10-16T12:11:24;18.60;81.20
420;DHT22;42600;54.408;13.016;2022-10-16T12:14:04;18.60;80.20
420;DHT22;42600;54.408;13.016;2022-10-16T12:16:32;18.70;80.30
420;DHT22;42600;54.408;13.016;2022-10-16T12:19:13;18.70;80.20
420;DHT22;42600;54.408;13.016;2022-10-16T12:21:41;18.70;80.60
420;DHT22;42600;54.408;13.016;2022-10-16T12:24:21;18.70;81.30
420;DHT22;42600;54.408;13.016;2022-10-16T12:26:49;18.80;80.50
420;DHT22;42600;54.408;13.016;2022-10-16T12:29:32;18.80;80.10
420;DHT22;42600;54.408;13.016;2022-10-16T12:31:59;18.80;80.60
420;DHT22;42600;54.408;13.016;2022-10-16T12:34:28;18.80;81.00
420;DHT22;42600;54.408;13.016;2022-10-16T12:37:12;18.90;80.80
420;DHT22;42600;54.408;13.016;2022-10-16T12:39:40;18.90;80.30
420;DHT22;42600;54.408;13.016;2022-10-16T12:42:21;18.90;80.80
420;DHT22;42600;54.408;13.016;2022-10-16T12:44:48;18.90;80.90
420;DHT22;42600;54.408;13.016;2022-10-16T12:47:24;18.90;80.70
420;DHT22;42600;54.408;13.016;2022-10-16T12:49:52;19.00;80.60
420;DHT22;42600;54.408;13.016;2022-10-16T12:52:34;19.00;80.40
420;DHT22;42600;54.408;13.016;2022-10-16T12:55:04;19.00;79.10
420;DHT22;42600;54.408;13.016;2022-10-16T12:57:41;19.00;79.80
420;DHT22;42600;54.408;13.016;2022-10-16T13:00:20;19.10;79.70
420;DHT22;42600;54.408;13.016;2022-10-16T13:05:59;19.10;78.80
420;DHT22;42600;54.408;13.016;2022-10-16T13:08:44;19.00;78.60
420;DHT22;42600;54.408;13.016;2022-10-16T13:11:19;19.10;79.00
420;DHT22;42600;54.408;13.016;2022-10-16T13:13:59;19.10;78.90
420;DHT22;42600;54.408;13.016;2022-10-16T13:16:46;19.10;78.70
420;DHT22;42600;54.408;13.016;2022-10-16T13:19:21;19.10;78.20
420;DHT22;42600;54.408;13.016;2022-10-16T13:21:58;19.10;78.40
420;DHT22;42600;54.408;13.016;2022-10-16T13:24:41;19.10;77.70
420;DHT22;42600;54.408;13.016;2022-10-16T13:27:12;19.10;78.00
420;DHT22;42600;54.408;13.016;2022-10-16T13:29:41;19.10;78.00
420;DHT22;42600;54.408;13.016;2022-10-16T13:32:10;19.10;77.60
420;DHT22;42600;54.408;13.016;2022-10-16T13:34:44;19.10;78.10
420;DHT22;42600;54.408;13.016;2022-10-16T13:37:17;19.10;78.00
420;DHT22;42600;54.408;13.016;2022-10-16T13:39:45;19.00;78.10
420;DHT22;42600;54.408;13.016;2022-10-16T13:42:18;19.00;78.10
420;DHT22;42600;54.408;13.016;2022-10-16T13:44:51;18.90;78.00
420;DHT22;42600;54.408;13.016;2022-10-16T13:47:19;18.90;78.20
420;DHT22;42600;54.408;13.016;2022-10-16T13:49:46;18.80;78.60
420;DHT22;42600;54.408;13.016;2022-10-16T13:52:18;18.80;78.60
420;DHT22;42600;54.408;13.016;2022-10-16T13:54:47;18.80;78.60
420;DHT22;42600;54.408;13.016;2022-10-16T13:57:15;18.70;79.00
420;DHT22;42600;54.408;13.016;2022-10-16T13:59:42;18.70;78.60
420;DHT22;42600;54.408;13.016;2022-10-16T14:02:18;18.70;78.70
420;DHT22;42600;54.408;13.016;2022-10-16T14:04:46;18.70;79.00
420;DHT22;42600;54.408;13.016;2022-10-16T14:07:16;18.60;79.30
420;DHT22;42600;54.408;13.016;2022-10-16T14:09:49;18.60;79.40
420;DHT22;42600;54.408;13.016;2022-10-16T14:12:16;18.50;79.40
420;DHT22;42600;54.408;13.016;2022-10-16T14:14:45;18.50;79.50
420;DHT22;42600;54.408;13.016;2022-10-16T14:17:15;18.50;79.40
420;DHT22;42600;54.408;13.016;2022-10-16T14:19:46;18.40;79.70
420;DHT22;42600;54.408;13.016;2022-10-16T14:22:30;18.40;79.70
420;DHT22;42600;54.408;13.016;2022-10-16T14:24:59;18.40;79.80
420;DHT22;42600;54.408;13.016;2022-10-16T14:27:32;18.40;79.80
420;DHT22;42600;54.408;13.016;2022-10-16T14:30:14;18.40;79.70
420;DHT22;42600;54.408;13.016;2022-10-16T14:32:53;18.40;79.50
420;DHT22;42600;54.408;13.016;2022-10-16T14:35:26;18.40;79.40
420;DHT22;42600;54.408;13.016;2022-10-16T14:37:53;18.40;79.50
420;DHT22;42600;54.408;13.016;2022-10-16T14:40:24;18.40;79.60
420;DHT22;42600;54.408;13.016;2022-10-16T14:42:51;18.40;80.00
420;DHT22;42600;54.408;13.016;2022-10-16T14:45:19;18.40;80.00
420;DHT22;42600;54.408;13.016;2022-10-16T14:47:50;18.30;80.00
420;DHT22;42600;54.408;13.016;2022-10-16T14:50:17;18.30;80.20
420;DHT22;42600;54.408;13.016;2022-10-16T14:52:43;18.20;80.00
420;DHT22;42600;54.408;13.016;2022-10-16T14:55:10;18.20;79.40
420;DHT22;42600;54.408;13.016;2022-10-16T14:57:39;18.10;79.90
420;DHT22;42600;54.408;13.016;2022-10-16T15:00:13;18.00;79.70
420;DHT22;42600;54.408;13.016;2022-10-16T15:02:42;18.00;79.90
420;DHT22;42600;54.408;13.016;2022-10-16T15:05:13;18.00;79.80
420;DHT22;42600;54.408;13.016;2022-10-16T15:07:40;18.00;79.60
420;DHT22;42600;54.408;13.016;2022-10-16T15:10:07;18.00;79.50
420;DHT22;42600;54.408;13.016;2022-10-16T15:12:34;17.90;79.60
420;DHT22;42600;54.408;13.016;2022-10-16T15:15:05;17.90;79.50
420;DHT22;42600;54.408;13.016;2022-10-16T15:17:41;17.80;79.40
420;DHT22;42600;54.408;13.016;2022-10-16T15:20:08;17.80;79.90
420;DHT22;42600;54.408;13.016;2022-10-16T15:22:35;17.80;80.30
420;DHT22;42600;54.408;13.016;2022-10-16T15:25:04;17.70;80.60
420;DHT22;42600;54.408;13.016;2022-10-16T15:27:31;17.60;80.80
420;DHT22;42600;54.408;13.016;2022-10-16T15:30:07;17.60;81.10
420;DHT22;42600;54.408;13.016;2022-10-16T15:32:33;17.40;81.50
420;DHT22;42600;54.408;13.016;2022-10-16T15:35:00;17.40;81.70
420;DHT22;42600;54.408;13.016;2022-10-16T15:37:26;17.40;81.80
420;DHT22;42600;54.408;13.016;2022-10-16T15:39:53;17.30;82.10
420;DHT22;42600;54.408;13.016;2022-10-16T15:42:20;17.30;82.60
420;DHT22;42600;54.408;13.016;2022-10-16T15:44:46;17.20;82.90
420;DHT22;42600;54.408;13.016;2022-10-16T15:47:14;17.20;83.00
420;DHT22;42600;54.408;13.016;2022-10-16T15:49:41;17.10;83.20
420;DHT22;42600;54.408;13.016;2022-10-16T15:52:07;17.10;83.20
420;DHT22;42600;54.408;13.016;2022-10-16T15:54:34;17.00;83.30
420;DHT22;42600;54.408;13.016;2022-10-16T15:57:00;17.00;83.50
420;DHT22;42600;54.408;13.016;2022-10-16T15:59:27;17.00;83.60
420;DHT22;42600;54.408;13.016;2022-10-16T16:01:54;16.90;83.70
420;DHT22;42600;54.408;13.016;2022-10-16T16:04:21;16.80;83.80
420;DHT22;42600;54.408;13.016;2022-10-16T16:06:48;16.80;84.20
420;DHT22;42600;54.408;13.016;2022-10-16T16:09:15;16.70;85.00
420;DHT22;42600;54.408;13.016;2022-10-16T16:11:41;16.70;85.10